SUMU/MVD METAR and TAF weather

Enter ICAO airport designator
Station Type Date Time Source
SUMU METAR 2022/01/23 12:00 UTC NOAA

SUMU 231200Z 31004KT 9999 BKN013 OVC023 23/22 Q1010 TEMPO RA


Station Type Date Time Source
SUMU Decoded METAR 2022/01/23 12:00 UTC NOAA

Carrasco, Uruguay (SUMU) 34-50S 056-00W 32M
Jan 23, 2022 - 07:00 AM EST / 2022.01.23 1200 UTC
Wind: from the NW (310 degrees) at 5 MPH (4 KT):0
Visibility: greater than 7 mile(s):0
Sky conditions: overcast
Temperature: 73 F (23 C)
Dew Point: 71 F (22 C)
Relative Humidity: 94%
Pressure (altimeter): 29.83 in. Hg (1010 hPa)
ob: SUMU 231200Z 31004KT 9999 BKN013 OVC023 23/22 Q1010 TEMPO RA
cycle: 12

Station Type Date Time Source
SUMU TAF 2022/01/23 12:30 UTC NOAA

TAF SUMU 231130Z 2312/2412 32008KT 9999 FEW030 BKN070 TX27/2318Z TN22/2409Z
TEMPO 2312/2318 VRB03KT 3000 RABR BKN010 OVC070
BECMG 2316/2318 13005KT
TEMPO 2404/2412 VRB18G28KT 1500 TSRA BKN015 FEW040CB BKN070

Example: see airport list